NCAR-RAP Real-Time Weather Data

Output produced by METARs form (19 April 2015  14:02 UTC)
found at http://weather.rap.ucar.edu/surface/
 
Conditions at: K4O4 observed 19 April 2015  13:55 UTC
Temperature: 15.0°C (59°F)
Dewpoint: 14.0°C (57°F) [RH = 94%]
Pressure (altimeter): 29.76 inches Hg (1007.9 mb)
Winds: from the SW (230 degrees) at 8 MPH (7 knots; 3.6 m/s)
Visibility: 10 or more miles (16+ km)
Ceiling: at least 12,000 feet AGL
Clouds: sky clear below 12,000 feet AGL
Present Weather: automated observation with no human augmentation;
there may or may not be significant weather present at this time
K4O4 191355Z AUTO 23007KT 10SM CLR 15/14 A2976 RMK AO2